sim
Sign-in with your pilot id or email,
or register
Callsign
Passwort

Schedule Details

Flight Number: DLH2275 (1)
Departure: Nice Cote d'Azur Airport (LFMN) at 18:35
Arrival: Munich Airport (EDDM) at 20:00
Route: Lufthansa Passenger Schedule. Enter filed route here before submitting Pirep.

Weather Information
Getting current METAR information for LFMN 291500Z 13005KT 9999 FEW026 SCT230 21/14 Q1016 NOSIG
Getting current METAR information for EDDM 291450Z 26010KT 9999 4000SE -RADZ FEW006 SCT011 BKN018 11/10 Q1019 NOSIG

Schedule Frequency

Route Map